createdAt,value
2023-07-24T00:00:12.285Z,6.15
2023-07-24T00:02:40.807Z,7.45
2023-07-24T00:05:11.286Z,6.35
2023-07-24T00:07:40.075Z,8.40
2023-07-24T00:10:09.824Z,5.40
2023-07-24T00:12:39.636Z,6.63
2023-07-24T00:15:10.285Z,6.97
2023-07-24T00:17:38.955Z,6.47
2023-07-24T00:20:09.292Z,6.18
2023-07-24T00:22:37.914Z,7.38
2023-07-24T00:25:07.649Z,7.28
2023-07-24T00:27:35.953Z,7.05
2023-07-24T00:30:04.780Z,7.35
2023-07-24T00:32:34.716Z,8.70
2023-07-24T00:35:04.687Z,9.82
2023-07-24T00:37:33.480Z,9.48
2023-07-24T00:40:03.631Z,7.40
2023-07-24T00:42:32.291Z,9.27
2023-07-24T00:45:01.968Z,9.05
2023-07-24T00:47:35.748Z,9.85
2023-07-24T00:50:04.352Z,7.95
2023-07-24T00:52:33.096Z,9.48
2023-07-24T00:55:01.948Z,9.90
2023-07-24T00:57:30.988Z,9.77
2023-07-24T01:00:00.456Z,11.05
2023-07-24T01:02:30.167Z,9.82
2023-07-24T01:05:01.495Z,10.25
2023-07-24T01:07:29.773Z,7.57
2023-07-24T01:09:58.967Z,12.13
2023-07-24T01:12:37.603Z,9.02
2023-07-24T01:15:15.393Z,12.48
2023-07-24T01:17:51.284Z,12.20
2023-07-24T01:20:24.300Z,10.00
2023-07-24T01:23:11.070Z,10.90
2023-07-24T01:25:54.978Z,9.98
2023-07-24T01:28:24.399Z,10.85
2023-07-24T01:30:54.024Z,9.02
2023-07-24T01:33:24.295Z,9.68
2023-07-24T01:35:57.029Z,13.25
2023-07-24T01:38:26.431Z,11.68
2023-07-24T01:40:56.949Z,10.55
2023-07-24T01:43:29.068Z,11.35
2023-07-24T01:45:58.358Z,9.15
2023-07-24T01:48:27.395Z,8.38
2023-07-24T01:50:56.598Z,9.85
2023-07-24T01:53:25.062Z,10.48
2023-07-24T01:55:55.239Z,9.32
2023-07-24T01:58:23.958Z,7.70
2023-07-24T02:00:52.352Z,10.50
2023-07-24T02:03:20.620Z,9.23
2023-07-24T02:05:52.829Z,10.05
2023-07-24T02:08:21.343Z,9.90
2023-07-24T02:10:52.423Z,11.15
2023-07-24T02:13:24.629Z,11.07
2023-07-24T02:15:55.142Z,11.82
2023-07-24T02:18:24.065Z,8.98
2023-07-24T02:20:54.753Z,9.43
2023-07-24T02:23:23.554Z,10.60
2023-07-24T02:25:54.469Z,10.32
2023-07-24T02:28:24.113Z,10.20
2023-07-24T02:30:57.126Z,10.45
2023-07-24T02:33:28.728Z,11.07
2023-07-24T02:35:57.208Z,11.15
2023-07-24T02:38:26.085Z,9.40
2023-07-24T02:40:54.990Z,11.27
2023-07-24T02:43:24.933Z,10.95
2023-07-24T02:45:54.029Z,8.52
2023-07-24T02:48:25.405Z,8.43
2023-07-24T02:50:54.317Z,10.57
2023-07-24T02:53:23.337Z,7.43
2023-07-24T02:55:51.811Z,9.18
2023-07-24T02:58:20.551Z,11.63
2023-07-24T03:00:50.531Z,10.65
2023-07-24T03:03:19.413Z,9.40
2023-07-24T03:05:48.108Z,9.43
2023-07-24T03:08:16.445Z,9.48
2023-07-24T03:10:45.455Z,12.65
2023-07-24T03:13:14.062Z,10.07
2023-07-24T03:15:42.420Z,11.13
2023-07-24T03:18:12.044Z,13.23
2023-07-24T03:20:40.393Z,13.98
2023-07-24T03:23:08.662Z,11.50
2023-07-24T03:25:37.754Z,10.93
2023-07-24T03:28:06.721Z,13.35
2023-07-24T03:30:35.241Z,9.77
2023-07-24T03:33:04.400Z,11.75
2023-07-24T03:35:34.436Z,12.65
2023-07-24T03:38:03.210Z,12.25
2023-07-24T03:40:31.848Z,8.75
2023-07-24T03:43:00.494Z,12.10
2023-07-24T03:45:28.738Z,17.05
2023-07-24T03:47:57.231Z,13.50
2023-07-24T03:50:25.927Z,13.85
2023-07-24T03:52:55.554Z,11.65
2023-07-24T03:55:24.399Z,11.90
2023-07-24T03:57:52.901Z,9.32
2023-07-24T04:00:21.497Z,13.55
2023-07-24T04:02:49.992Z,10.23
2023-07-24T04:05:19.136Z,12.82
2023-07-24T04:07:48.019Z,13.77
2023-07-24T04:10:17.812Z,11.63
2023-07-24T04:12:46.424Z,12.07
2023-07-24T04:15:15.420Z,13.15
2023-07-24T04:17:43.673Z,10.48
2023-07-24T04:20:12.625Z,10.63
2023-07-24T04:22:41.260Z,10.45
2023-07-24T04:25:10.805Z,12.80
2023-07-24T04:27:40.863Z,12.18
2023-07-24T04:30:10.602Z,10.73
2023-07-24T04:32:39.331Z,11.50
2023-07-24T04:35:09.394Z,9.50
2023-07-24T04:37:38.098Z,10.80
2023-07-24T04:40:07.995Z,8.27
2023-07-24T04:42:36.689Z,9.02
2023-07-24T04:45:07.953Z,6.45
2023-07-24T04:47:38.289Z,7.18
2023-07-24T04:50:08.260Z,9.40
2023-07-24T04:52:36.902Z,8.98
2023-07-24T04:55:06.182Z,7.65
2023-07-24T04:57:34.864Z,9.20
2023-07-24T05:00:05.599Z,9.40
2023-07-24T05:02:34.467Z,7.60
2023-07-24T05:05:03.454Z,9.30
2023-07-24T05:07:32.081Z,6.90
2023-07-24T05:10:00.867Z,7.95
2023-07-24T05:12:29.165Z,8.55
2023-07-24T05:14:57.566Z,8.93
2023-07-24T05:17:27.321Z,7.00
2023-07-24T05:19:56.041Z,6.40
2023-07-24T05:22:24.698Z,6.45
2023-07-24T05:24:53.044Z,9.15
2023-07-24T05:27:21.695Z,5.65
2023-07-24T05:29:50.353Z,9.27
2023-07-24T05:32:19.026Z,9.50
2023-07-24T05:34:48.922Z,10.80
2023-07-24T05:37:17.694Z,7.50
2023-07-24T05:39:46.400Z,6.07
2023-07-24T05:42:14.757Z,6.13
2023-07-24T05:44:43.557Z,6.55
2023-07-24T05:47:12.085Z,7.00
2023-07-24T05:49:42.656Z,5.82
2023-07-24T05:52:12.685Z,3.97
2023-07-24T05:54:41.810Z,5.90
2023-07-24T05:57:10.598Z,5.97
2023-07-24T05:59:38.957Z,5.85
2023-07-24T06:02:08.481Z,5.90
2023-07-24T06:04:37.429Z,6.65
2023-07-24T06:07:06.163Z,6.93
2023-07-24T06:09:35.932Z,10.38
2023-07-24T06:12:04.965Z,16.05
2023-07-24T06:14:33.862Z,13.57
2023-07-24T06:17:02.243Z,6.97
2023-07-24T06:19:30.573Z,7.97
2023-07-24T06:21:58.955Z,9.77
2023-07-24T06:24:27.437Z,10.75
2023-07-24T06:26:57.082Z,11.13
2023-07-24T06:29:26.932Z,8.30
2023-07-24T06:31:55.713Z,9.77
2023-07-24T06:34:24.069Z,10.73
2023-07-24T06:36:52.591Z,7.85
2023-07-24T06:39:21.732Z,9.98
2023-07-24T06:41:50.549Z,11.90
2023-07-24T06:44:20.392Z,7.97
2023-07-24T06:46:49.398Z,8.48
2023-07-24T06:49:17.767Z,6.75
2023-07-24T06:51:46.024Z,4.07
2023-07-24T06:54:14.462Z,7.05
2023-07-24T06:56:43.201Z,8.23
2023-07-24T06:59:12.171Z,8.25
2023-07-24T07:01:41.930Z,7.35
2023-07-24T07:04:10.672Z,7.53
2023-07-24T07:06:39.499Z,8.15
2023-07-24T07:09:08.041Z,5.63
2023-07-24T07:11:36.465Z,6.28
2023-07-24T07:14:05.114Z,6.47
2023-07-24T07:16:34.081Z,8.73
2023-07-24T07:19:04.038Z,6.53
2023-07-24T07:21:32.838Z,6.03
2023-07-24T07:24:01.756Z,7.55
2023-07-24T07:26:31.294Z,9.05
2023-07-24T07:29:00.818Z,8.10
2023-07-24T07:31:29.364Z,8.07
2023-07-24T07:33:58.357Z,9.68
2023-07-24T07:36:28.584Z,8.68
2023-07-24T07:38:57.153Z,7.40
2023-07-24T07:41:25.859Z,9.25
2023-07-24T07:43:54.366Z,6.40
2023-07-24T07:46:22.940Z,10.70
2023-07-24T07:48:51.701Z,9.27
2023-07-24T07:51:20.366Z,10.77
2023-07-24T07:53:50.127Z,8.43
2023-07-24T07:56:18.851Z,9.18
2023-07-24T07:58:47.548Z,10.00
2023-07-24T08:01:15.968Z,11.00
2023-07-24T08:03:44.586Z,9.75
2023-07-24T08:06:13.539Z,10.32
2023-07-24T08:08:42.169Z,8.52
2023-07-24T08:11:12.041Z,5.28
2023-07-24T08:13:40.509Z,8.18
2023-07-24T08:16:19.526Z,6.65
2023-07-24T08:18:49.014Z,5.95
2023-07-24T08:21:18.076Z,6.10
2023-07-24T08:23:47.119Z,8.43
2023-07-24T08:26:16.849Z,5.75
2023-07-24T08:28:46.419Z,8.07
2023-07-24T08:31:15.211Z,6.05
2023-07-24T08:33:44.031Z,6.03
2023-07-24T08:36:13.911Z,8.13
2023-07-24T08:38:43.575Z,6.78
2023-07-24T08:41:14.975Z,7.43
2023-07-24T08:43:45.628Z,8.25
2023-07-24T08:46:15.441Z,7.50
2023-07-24T08:48:44.777Z,7.32
2023-07-24T08:51:15.510Z,6.22
2023-07-24T08:53:45.519Z,8.05
2023-07-24T08:56:15.422Z,7.85
2023-07-24T08:58:45.568Z,7.13
2023-07-24T09:01:14.074Z,7.10
2023-07-24T09:03:42.888Z,7.72
2023-07-24T09:06:12.023Z,6.50
2023-07-24T09:08:42.174Z,6.28
2023-07-24T09:11:13.033Z,6.72
2023-07-24T09:13:46.420Z,6.90
2023-07-24T09:16:25.389Z,7.03
2023-07-24T09:21:31.081Z,7.38
2023-07-24T09:24:00.278Z,6.53
2023-07-24T09:26:29.626Z,7.30
2023-07-24T09:29:00.152Z,6.05
2023-07-24T09:31:37.945Z,6.95
2023-07-24T09:34:06.419Z,7.25
2023-07-24T09:36:40.511Z,7.47
2023-07-24T09:39:12.067Z,5.85
2023-07-24T09:41:41.893Z,6.40
2023-07-24T09:44:15.214Z,7.65
2023-07-24T09:46:47.710Z,7.85
2023-07-24T09:49:32.007Z,7.95
2023-07-24T09:52:02.656Z,8.57
2023-07-24T09:54:42.025Z,6.93
2023-07-24T09:57:21.086Z,7.85
2023-07-24T09:59:54.923Z,6.95
2023-07-24T10:02:24.971Z,6.15
2023-07-24T10:04:54.016Z,5.95
2023-07-24T10:07:23.807Z,5.03
2023-07-24T10:09:52.749Z,5.80
2023-07-24T10:12:21.964Z,6.47
2023-07-24T10:14:53.415Z,6.35
2023-07-24T10:17:38.007Z,6.13
2023-07-24T10:20:09.068Z,6.22
2023-07-24T10:22:42.565Z,7.45
2023-07-24T10:25:12.052Z,8.15
2023-07-24T10:27:44.837Z,8.75
2023-07-24T10:30:32.025Z,7.50
2023-07-24T10:33:12.144Z,5.72
2023-07-24T10:35:44.215Z,7.88
2023-07-24T10:38:14.759Z,6.47
2023-07-24T10:40:47.375Z,7.35
2023-07-24T10:43:22.005Z,7.30
2023-07-24T10:45:54.230Z,9.07
2023-07-24T10:48:24.912Z,8.15
2023-07-24T10:50:55.282Z,8.10
2023-07-24T10:53:25.435Z,6.43
2023-07-24T10:55:54.442Z,6.63
2023-07-24T10:58:26.931Z,8.45
2023-07-24T11:00:58.988Z,13.20
2023-07-24T11:03:28.065Z,11.32
2023-07-24T11:05:57.204Z,12.80
2023-07-24T11:08:25.692Z,9.90
2023-07-24T11:10:55.904Z,6.50
2023-07-24T11:13:27.167Z,11.07
2023-07-24T11:15:57.854Z,8.70
2023-07-24T11:18:37.323Z,9.73
2023-07-24T11:21:18.033Z,7.63
2023-07-24T11:23:51.484Z,11.77
2023-07-24T11:26:22.515Z,8.57
2023-07-24T11:28:52.028Z,7.78
2023-07-24T11:31:22.396Z,6.32
2023-07-24T11:33:51.775Z,8.18
2023-07-24T11:36:21.321Z,7.25
2023-07-24T11:38:50.601Z,6.45
2023-07-24T11:41:20.288Z,8.43
2023-07-24T11:43:50.254Z,7.97
2023-07-24T11:46:33.334Z,7.07
2023-07-24T11:49:02.041Z,6.85
2023-07-24T11:51:31.112Z,5.03
2023-07-24T11:54:09.608Z,5.43
2023-07-24T11:56:38.224Z,7.07
2023-07-24T11:59:13.795Z,6.47
2023-07-24T12:01:47.462Z,6.75
2023-07-24T12:04:16.344Z,6.57
2023-07-24T12:06:45.294Z,6.95
2023-07-24T12:09:14.309Z,6.38
2023-07-24T12:11:45.520Z,6.63
2023-07-24T12:14:16.258Z,4.40
2023-07-24T12:16:46.272Z,5.93
2023-07-24T12:19:15.350Z,5.78
2023-07-24T12:21:44.041Z,6.10
2023-07-24T12:24:12.573Z,6.28
2023-07-24T12:26:40.956Z,8.77
2023-07-24T12:29:09.327Z,6.60
2023-07-24T12:31:38.217Z,5.82
2023-07-24T12:34:08.100Z,6.43
2023-07-24T12:36:36.914Z,5.97
2023-07-24T12:39:05.788Z,6.20
2023-07-24T12:41:34.664Z,5.35
2023-07-24T12:44:03.512Z,6.28
2023-07-24T12:46:32.584Z,6.43
2023-07-24T12:49:01.327Z,9.73
2023-07-24T12:51:31.628Z,6.40
2023-07-24T12:54:11.654Z,8.43
2023-07-24T12:56:49.695Z,9.07
2023-07-24T12:59:18.701Z,12.95
2023-07-24T13:01:47.277Z,27.85
2023-07-24T13:04:15.585Z,10.60
2023-07-24T13:06:45.886Z,4.50
2023-07-24T13:09:14.299Z,6.85
2023-07-24T13:11:43.148Z,7.28
2023-07-24T13:14:11.438Z,8.90
2023-07-24T13:19:08.244Z,8.35
2023-07-24T13:21:36.860Z,8.82
2023-07-24T13:24:07.396Z,9.68
2023-07-24T13:26:36.291Z,8.63
2023-07-24T13:29:05.541Z,11.25
2023-07-24T13:31:34.084Z,10.90
2023-07-24T13:34:03.036Z,11.95
2023-07-24T13:36:31.763Z,11.93
2023-07-24T13:39:00.779Z,9.38
2023-07-24T13:41:31.032Z,7.72
2023-07-24T13:43:59.872Z,10.38
2023-07-24T13:46:28.768Z,8.10
2023-07-24T13:48:57.459Z,8.20
2023-07-24T13:51:26.252Z,7.43
2023-07-24T13:53:55.169Z,6.78
2023-07-24T13:56:24.809Z,6.57
2023-07-24T13:58:54.605Z,7.22
2023-07-24T14:01:22.978Z,5.53
2023-07-24T14:03:51.750Z,5.13
2023-07-24T14:06:20.749Z,5.35
2023-07-24T14:08:49.385Z,4.75
2023-07-24T14:11:18.063Z,3.90
2023-07-24T14:13:47.605Z,6.47
2023-07-24T14:16:17.379Z,4.07
2023-07-24T14:18:45.821Z,4.72
2023-07-24T14:21:14.649Z,3.80
2023-07-24T14:23:43.188Z,2.97
2023-07-24T14:26:11.537Z,3.47
2023-07-24T14:28:40.041Z,3.60
2023-07-24T14:31:08.551Z,3.10
2023-07-24T14:33:38.361Z,3.85
2023-07-24T14:36:07.178Z,3.95
2023-07-24T14:38:35.816Z,2.47
2023-07-24T14:41:04.810Z,3.53
2023-07-24T14:43:33.173Z,3.72
2023-07-24T14:46:01.752Z,4.38
2023-07-24T14:48:32.782Z,4.10
2023-07-24T14:51:04.378Z,3.33
2023-07-24T14:53:33.490Z,4.05
2023-07-24T14:56:02.554Z,3.67
2023-07-24T14:58:30.945Z,4.35
2023-07-24T15:00:59.979Z,3.42
2023-07-24T15:03:28.865Z,3.65
2023-07-24T15:05:57.910Z,3.58
2023-07-24T15:08:27.788Z,2.15
2023-07-24T15:10:56.753Z,3.50
2023-07-24T15:13:25.553Z,2.30
2023-07-24T15:15:53.923Z,2.83
2023-07-24T15:18:22.558Z,3.20
2023-07-24T15:20:51.440Z,4.28
2023-07-24T15:23:20.140Z,3.28
2023-07-24T15:25:49.973Z,3.05
2023-07-24T15:28:18.415Z,1.45
2023-07-24T15:30:47.092Z,2.58
2023-07-24T15:33:15.755Z,1.30
2023-07-24T15:35:44.418Z,2.75
2023-07-24T15:38:13.775Z,2.13
2023-07-24T15:40:42.208Z,3.08
2023-07-24T15:43:12.628Z,3.15
2023-07-24T15:45:42.563Z,5.03
2023-07-24T15:48:10.947Z,2.67
2023-07-24T15:50:40.582Z,4.05
2023-07-24T15:53:09.532Z,2.63
2023-07-24T15:55:37.921Z,2.67
2023-07-24T15:58:06.297Z,2.72
2023-07-24T16:00:36.754Z,3.17
2023-07-24T16:03:05.630Z,3.17
2023-07-24T16:05:34.205Z,5.28
2023-07-24T16:08:03.658Z,3.30
2023-07-24T16:10:33.438Z,6.28
2023-07-24T16:13:01.867Z,2.75
2023-07-24T16:20:35.654Z,3.13
2023-07-24T16:23:04.364Z,4.65
2023-07-24T16:25:33.142Z,3.88
2023-07-24T16:28:01.423Z,4.05
2023-07-24T16:30:30.442Z,4.38
2023-07-24T16:32:59.737Z,3.85
2023-07-24T16:35:29.889Z,5.25
2023-07-24T16:37:58.624Z,6.45
2023-07-24T16:40:27.114Z,4.78
2023-07-24T16:42:56.866Z,5.60
2023-07-24T16:45:29.646Z,5.57
2023-07-24T16:48:05.325Z,6.72
2023-07-24T16:50:37.575Z,4.78
2023-07-24T16:53:06.282Z,4.95
2023-07-24T16:55:35.057Z,5.40
2023-07-24T16:58:03.988Z,5.05
2023-07-24T17:00:33.037Z,5.53
2023-07-24T17:03:01.803Z,5.50
2023-07-24T17:05:30.523Z,7.20
2023-07-24T17:08:00.183Z,5.97
2023-07-24T17:10:32.437Z,9.00
2023-07-24T17:13:01.107Z,6.85
2023-07-24T17:15:29.521Z,9.15
2023-07-24T17:17:58.249Z,13.02
2023-07-24T17:20:26.568Z,9.88
2023-07-24T17:22:55.148Z,10.02
2023-07-24T17:25:25.478Z,10.02
2023-07-24T17:27:54.984Z,12.80
2023-07-24T17:30:23.933Z,11.82
2023-07-24T17:32:52.867Z,9.48
2023-07-24T17:35:21.976Z,9.82
2023-07-24T17:37:50.582Z,12.23
2023-07-24T17:40:19.954Z,11.60
2023-07-24T17:42:50.258Z,12.15
2023-07-24T17:45:19.217Z,14.73
2023-07-24T17:47:47.660Z,13.68
2023-07-24T17:50:16.792Z,12.45
2023-07-24T17:52:45.414Z,12.60
2023-07-24T17:55:14.092Z,12.40
2023-07-24T17:57:42.752Z,18.00
2023-07-24T18:00:14.876Z,16.48
2023-07-24T18:02:44.426Z,20.95
2023-07-24T18:05:13.920Z,20.85
2023-07-24T18:07:42.737Z,15.40
2023-07-24T18:10:11.852Z,17.55
2023-07-24T18:12:41.033Z,19.63
2023-07-24T18:15:12.326Z,16.70
2023-07-24T18:17:43.673Z,14.95
2023-07-24T18:20:13.249Z,14.82
2023-07-24T18:22:42.625Z,16.63
2023-07-24T18:25:11.364Z,16.30
2023-07-24T18:27:40.266Z,16.15
2023-07-24T18:30:10.093Z,15.68
2023-07-24T18:32:40.140Z,16.38
2023-07-24T18:35:09.730Z,17.08
2023-07-24T18:37:38.353Z,18.25
2023-07-24T18:40:08.704Z,14.45
2023-07-24T18:42:37.021Z,13.48
2023-07-24T18:45:06.009Z,12.80
2023-07-24T18:47:35.257Z,12.50
2023-07-24T18:50:06.009Z,9.55
2023-07-24T18:52:34.360Z,10.85
2023-07-24T18:55:02.729Z,9.32
2023-07-24T18:57:31.112Z,9.52
2023-07-24T18:59:59.447Z,10.10
2023-07-24T19:02:27.928Z,9.65
2023-07-24T19:04:56.230Z,8.48
2023-07-24T19:07:25.974Z,11.63
2023-07-24T19:09:54.753Z,10.50
2023-07-24T19:12:23.153Z,9.80
2023-07-24T19:14:51.754Z,9.65
2023-07-24T19:17:20.671Z,12.52
2023-07-24T19:19:49.293Z,10.73
2023-07-24T19:22:17.893Z,10.98
2023-07-24T19:24:47.741Z,11.90
2023-07-24T19:27:16.491Z,11.25
2023-07-24T19:29:45.161Z,11.55
2023-07-24T19:32:13.893Z,9.43
2023-07-24T19:34:44.325Z,8.80
2023-07-24T19:37:13.074Z,9.55
2023-07-24T19:39:41.435Z,11.02
2023-07-24T19:42:12.153Z,9.00
2023-07-24T19:44:40.706Z,9.35
2023-07-24T19:47:10.598Z,11.23
2023-07-24T19:49:41.292Z,10.57
2023-07-24T19:52:10.159Z,8.70
2023-07-24T19:54:38.770Z,9.77
2023-07-24T19:57:08.354Z,9.18
2023-07-24T19:59:38.270Z,10.23
2023-07-24T20:02:08.293Z,11.20
2023-07-24T20:04:37.893Z,10.55
2023-07-24T20:07:08.080Z,12.02
2023-07-24T20:09:38.137Z,11.60
2023-07-24T20:12:07.827Z,14.20
2023-07-24T20:14:37.984Z,11.38
2023-07-24T20:17:07.317Z,10.90
2023-07-24T20:19:37.700Z,10.55
2023-07-24T20:22:06.257Z,11.13
2023-07-24T20:24:35.296Z,15.55
2023-07-24T20:27:04.049Z,12.10
2023-07-24T20:29:32.392Z,13.13
2023-07-24T20:34:30.404Z,11.25
2023-07-24T20:36:59.041Z,15.75
2023-07-24T20:39:28.200Z,13.63
2023-07-24T20:41:56.434Z,10.70
2023-07-24T20:44:25.176Z,12.23
2023-07-24T20:46:53.846Z,12.63
2023-07-24T20:49:23.499Z,13.68
2023-07-24T20:51:52.128Z,18.60
2023-07-24T20:54:20.876Z,12.27
2023-07-24T20:56:49.628Z,11.45
2023-07-24T20:59:17.998Z,11.38
2023-07-24T21:01:46.738Z,12.70
2023-07-24T21:04:15.421Z,11.52
2023-07-24T21:06:45.128Z,12.10
2023-07-24T21:09:13.970Z,15.25
2023-07-24T21:11:42.618Z,12.00
2023-07-24T21:14:11.220Z,11.73
2023-07-24T21:16:39.770Z,11.50
2023-07-24T21:19:08.110Z,15.52
2023-07-24T21:21:36.835Z,11.95
2023-07-24T21:24:07.701Z,13.10
2023-07-24T21:26:36.529Z,14.07
2023-07-24T21:29:05.644Z,12.55
2023-07-24T21:31:34.775Z,13.77
2023-07-24T21:34:03.648Z,14.48
2023-07-24T21:36:32.445Z,15.88
2023-07-24T21:39:00.887Z,12.63
2023-07-24T21:41:31.169Z,13.85
2023-07-24T21:43:59.468Z,13.13
2023-07-24T21:48:56.445Z,7.10
2023-07-24T21:51:25.311Z,7.30
2023-07-24T21:53:54.199Z,6.80
2023-07-24T21:56:22.481Z,7.75
2023-07-24T22:01:21.371Z,6.72
2023-07-24T22:03:50.092Z,5.95
2023-07-24T22:06:18.830Z,8.13
2023-07-24T22:08:47.539Z,6.20
2023-07-24T22:11:17.591Z,9.20
2023-07-24T22:13:47.174Z,10.93
2023-07-24T22:16:16.955Z,10.30
2023-07-24T22:18:45.332Z,8.82
2023-07-24T22:23:42.070Z,4.88
2023-07-24T22:26:10.701Z,5.95
2023-07-24T22:28:39.223Z,6.82
2023-07-24T22:31:11.337Z,4.68
2023-07-24T22:33:41.188Z,3.85
2023-07-24T22:36:10.267Z,7.40
2023-07-24T22:38:38.578Z,4.45
2023-07-24T22:43:41.500Z,6.50
2023-07-24T22:48:38.034Z,4.40
2023-07-24T22:53:35.802Z,5.70
2023-07-24T22:59:20.872Z,7.18
2023-07-24T23:01:49.886Z,7.38
2023-07-24T23:04:18.552Z,8.32
2023-07-24T23:06:48.117Z,5.95
2023-07-24T23:09:16.386Z,5.75
2023-07-24T23:11:44.115Z,8.90
2023-07-24T23:14:12.865Z,6.80
2023-07-24T23:16:41.590Z,5.78
2023-07-24T23:19:10.500Z,4.47
2023-07-24T23:21:39.178Z,9.18
2023-07-24T23:24:09.071Z,6.40
2023-07-24T23:26:37.578Z,7.20
2023-07-24T23:29:06.342Z,9.00
2023-07-24T23:31:34.987Z,6.57
2023-07-24T23:34:03.606Z,5.72
2023-07-24T23:36:32.245Z,7.53
2023-07-24T23:39:00.845Z,5.43
2023-07-24T23:41:30.606Z,8.65
2023-07-24T23:43:59.484Z,6.65
2023-07-24T23:46:28.024Z,10.57
2023-07-24T23:48:56.359Z,5.35
2023-07-24T23:51:25.384Z,6.68
2023-07-24T23:53:54.073Z,7.97
2023-07-24T23:56:22.631Z,11.38
2023-07-24T23:58:52.216Z,11.13
